Time;durP1;ratioP1;P1;durP2;ratioP2;P2;SDS_P1;SDS_P2;PMS_P1;PMS_P2;Temp;Humidity;BMP_temperature;BMP_pressure;BME280_temperature;BME280_humidity;BME280_pressure;Samples;Min_cycle;Max_cycle;Signal;HPM_P1;HPM_P2
2022/09/06 00:00:49;;;;;;;8.88;4.63;;;;;;;;;;5026739;28;20319;-65
2022/09/06 00:03:15;;;;;;;5.60;4.10;;;;;;;;;;5032112;28;20201;-65
2022/09/06 00:05:42;;;;;;;6.70;4.30;;;;;;;;;;5035599;28;20189;-66
2022/09/06 00:08:07;;;;;;;7.65;4.32;;;;;;;;;;5021192;28;20185;-65
2022/09/06 00:10:33;;;;;;;5.05;4.00;;;;;;;;;;5033843;28;20178;-65
2022/09/06 00:13:01;;;;;;;6.47;4.30;;;;;;;;;;5027665;28;20174;-65
2022/09/06 00:15:26;;;;;;;6.93;4.10;;;;;;;;;;5032416;28;20220;-65
2022/09/06 00:17:51;;;;;;;7.35;4.20;;;;;;;;;;5023862;28;20206;-65
2022/09/06 00:20:17;;;;;;;9.05;4.35;;;;;;;;;;5034860;28;20189;-65
2022/09/06 00:22:42;;;;;;;6.55;4.15;;;;;;;;;;5027588;28;20650;-66
2022/09/06 00:25:08;;;;;;;8.27;3.97;;;;;;;;;;5026993;28;20238;-66
2022/09/06 00:27:33;;;;;;;7.75;3.83;;;;;;;;;;5031912;28;20524;-66
2022/09/06 00:29:59;;;;;;;8.48;4.22;;;;;;;;;;5025762;28;20709;-66
2022/09/06 00:32:25;;;;;;;4.70;4.18;;;;;;;;;;5039029;28;20286;-66
2022/09/06 00:34:50;;;;;;;7.00;3.90;;;;;;;;;;5038765;28;20189;-66
2022/09/06 00:37:15;;;;;;;4.75;3.92;;;;;;;;;;5032442;28;20202;-66
2022/09/06 00:39:41;;;;;;;7.30;4.70;;;;;;;;;;5033811;28;20280;-66
2022/09/06 00:42:08;;;;;;;8.18;4.28;;;;;;;;;;5040536;28;20227;-66
2022/09/06 00:44:33;;;;;;;6.13;4.07;;;;;;;;;;5039576;28;20239;-66
2022/09/06 00:46:59;;;;;;;9.95;4.63;;;;;;;;;;5032937;28;20550;-65
2022/09/06 00:49:28;;;;;;;7.72;4.68;;;;;;;;;;5038770;28;20185;-67
2022/09/06 00:52:00;;;;;;;7.15;4.10;;;;;;;;;;5032771;28;20204;-66
2022/09/06 00:54:26;;;;;;;8.70;4.57;;;;;;;;;;5035364;28;20307;-66
2022/09/06 00:56:51;;;;;;;6.75;4.20;;;;;;;;;;5042765;28;20557;-66
2022/09/06 00:59:17;;;;;;;7.25;4.32;;;;;;;;;;5029385;28;20562;-66
2022/09/06 01:01:42;;;;;;;6.10;4.70;;;;;;;;;;5028390;28;20193;-66
2022/09/06 01:04:08;;;;;;;4.00;3.70;;;;;;;;;;5025648;28;20210;-65
2022/09/06 01:06:39;;;;;;;7.80;4.55;;;;;;;;;;5029347;28;20289;-66
2022/09/06 01:09:38;;;;;;;4.43;4.00;;;;;;;;;;5028214;28;20189;-66
2022/09/06 01:12:39;;;;;;;6.43;4.53;;;;;;;;;;5027515;28;20186;-66
2022/09/06 01:15:29;;;;;;;5.00;4.50;;;;;;;;;;5025312;28;20525;-66
2022/09/06 01:18:28;;;;;;;6.30;4.70;;;;;;;;;;5022099;28;20192;-66
2022/09/06 01:21:21;;;;;;;6.70;4.55;;;;;;;;;;5026273;28;20596;-66
2022/09/06 01:23:52;;;;;;;5.32;4.70;;;;;;;;;;5023657;28;20198;-66
2022/09/06 01:26:44;;;;;;;8.05;4.97;;;;;;;;;;5029962;28;20652;-65
2022/09/06 01:29:28;;;;;;;5.43;4.47;;;;;;;;;;5022388;28;20186;-66
2022/09/06 01:32:04;;;;;;;9.25;5.10;;;;;;;;;;5025108;28;20259;-65
2022/09/06 01:34:55;;;;;;;7.43;4.72;;;;;;;;;;5022483;28;20174;-65
2022/09/06 01:37:22;;;;;;;6.30;4.15;;;;;;;;;;5025793;28;20193;-66
2022/09/06 01:39:47;;;;;;;8.70;4.93;;;;;;;;;;5026656;28;20269;-66
2022/09/06 01:42:20;;;;;;;5.55;5.00;;;;;;;;;;5023925;28;20621;-66
2022/09/06 01:44:59;;;;;;;5.95;5.20;;;;;;;;;;5023411;28;20272;-66
2022/09/06 01:47:24;;;;;;;7.35;4.70;;;;;;;;;;5023261;28;20657;-65
2022/09/06 01:50:19;;;;;;;7.75;5.10;;;;;;;;;;5023831;28;20189;-66
2022/09/06 01:53:16;;;;;;;6.70;5.28;;;;;;;;;;5022524;28;20194;-66
2022/09/06 01:55:48;;;;;;;9.43;4.97;;;;;;;;;;5026956;28;20186;-66
2022/09/06 01:58:22;;;;;;;6.70;5.38;;;;;;;;;;5024726;28;20194;-65
2022/09/06 02:00:59;;;;;;;6.78;5.45;;;;;;;;;;5019956;28;20182;-65
2022/09/06 02:03:37;;;;;;;10.68;6.57;;;;;;;;;;5026146;28;20205;-66
2022/09/06 02:06:07;;;;;;;9.23;6.47;;;;;;;;;;5024191;28;20190;-65
2022/09/06 02:08:45;;;;;;;12.40;7.55;;;;;;;;;;5024645;28;20209;-64
2022/09/06 02:11:14;;;;;;;11.27;8.52;;;;;;;;;;5020407;28;20236;-66
2022/09/06 02:13:45;;;;;;;17.60;9.18;;;;;;;;;;5010770;28;20277;-66
2022/09/06 02:16:15;;;;;;;11.38;8.43;;;;;;;;;;5019508;28;20214;-66
2022/09/06 02:19:14;;;;;;;10.70;8.85;;;;;;;;;;5019667;28;20593;-65
2022/09/06 02:21:44;;;;;;;15.80;8.35;;;;;;;;;;5026982;28;20218;-65
2022/09/06 02:24:15;;;;;;;13.43;9.05;;;;;;;;;;5023223;28;20202;-65
2022/09/06 02:26:43;;;;;;;13.98;8.70;;;;;;;;;;5028353;28;20391;-65
2022/09/06 02:29:08;;;;;;;13.25;9.27;;;;;;;;;;5024961;28;20191;-66
2022/09/06 02:31:41;;;;;;;16.88;9.13;;;;;;;;;;5025182;28;20214;-66
2022/09/06 02:34:07;;;;;;;14.23;9.48;;;;;;;;;;5022479;28;20526;-66
2022/09/06 02:36:35;;;;;;;13.02;9.63;;;;;;;;;;5018229;28;20178;-65
2022/09/06 02:39:00;;;;;;;12.55;9.00;;;;;;;;;;5024340;28;20194;-65
2022/09/06 02:41:27;;;;;;;16.23;8.80;;;;;;;;;;5025514;28;20352;-66
2022/09/06 02:43:53;;;;;;;12.95;9.30;;;;;;;;;;5026170;28;20719;-66
2022/09/06 02:46:18;;;;;;;17.05;9.40;;;;;;;;;;5024508;28;20363;-65
2022/09/06 02:48:43;;;;;;;16.15;9.27;;;;;;;;;;5026221;28;20264;-65
2022/09/06 02:51:09;;;;;;;17.60;10.13;;;;;;;;;;5017176;28;20194;-65
2022/09/06 02:53:35;;;;;;;14.70;9.07;;;;;;;;;;5014959;28;20346;-66
2022/09/06 02:56:01;;;;;;;14.65;9.48;;;;;;;;;;5011865;28;20261;-65
2022/09/06 02:58:26;;;;;;;13.75;9.43;;;;;;;;;;5022067;28;20190;-66
2022/09/06 03:00:52;;;;;;;14.02;8.52;;;;;;;;;;5018391;28;20190;-66
2022/09/06 03:03:18;;;;;;;13.32;9.15;;;;;;;;;;5023734;28;20251;-66
2022/09/06 03:05:48;;;;;;;14.70;8.52;;;;;;;;;;5024659;28;20213;-66
2022/09/06 03:08:14;;;;;;;14.63;9.15;;;;;;;;;;5020564;28;20613;-66
2022/09/06 03:10:40;;;;;;;15.65;9.05;;;;;;;;;;5027272;28;20182;-66
2022/09/06 03:13:06;;;;;;;11.90;8.77;;;;;;;;;;5025261;28;20178;-66
2022/09/06 03:15:31;;;;;;;11.25;7.90;;;;;;;;;;5018439;28;20178;-66
2022/09/06 03:17:58;;;;;;;12.88;7.75;;;;;;;;;;5027825;28;20654;-66
2022/09/06 03:20:24;;;;;;;11.50;7.78;;;;;;;;;;5016317;28;20209;-66
2022/09/06 03:22:49;;;;;;;13.95;7.63;;;;;;;;;;5014977;28;20186;-66
2022/09/06 03:25:14;;;;;;;11.82;7.70;;;;;;;;;;5017988;28;20233;-66
2022/09/06 03:27:40;;;;;;;9.23;7.35;;;;;;;;;;5027750;28;20170;-66
2022/09/06 03:30:06;;;;;;;11.10;7.70;;;;;;;;;;5025570;28;20182;-66
2022/09/06 03:32:31;;;;;;;12.57;7.95;;;;;;;;;;5025983;28;20212;-65
2022/09/06 03:34:57;;;;;;;13.63;8.02;;;;;;;;;;5025344;28;20264;-66
2022/09/06 03:37:22;;;;;;;10.55;7.47;;;;;;;;;;5027967;28;20316;-65
2022/09/06 03:39:47;;;;;;;20.00;8.70;;;;;;;;;;5025702;28;20276;-65
2022/09/06 03:42:13;;;;;;;17.02;9.32;;;;;;;;;;5014656;28;20279;-66
2022/09/06 03:44:38;;;;;;;13.18;9.40;;;;;;;;;;5020144;28;20210;-66
2022/09/06 03:47:04;;;;;;;16.08;9.13;;;;;;;;;;5013770;28;20511;-67
2022/09/06 03:49:29;;;;;;;11.63;7.90;;;;;;;;;;5024548;28;20297;-66
2022/09/06 03:51:54;;;;;;;15.15;8.30;;;;;;;;;;5025227;28;20212;-66
2022/09/06 03:54:20;;;;;;;13.50;7.55;;;;;;;;;;5022857;28;20765;-66
2022/09/06 03:56:45;;;;;;;12.25;7.70;;;;;;;;;;5010428;28;20189;-66
2022/09/06 03:59:10;;;;;;;12.38;8.25;;;;;;;;;;5022516;28;20452;-66
2022/09/06 04:01:36;;;;;;;9.30;7.22;;;;;;;;;;5023417;28;20178;-66
2022/09/06 04:04:02;;;;;;;12.43;8.10;;;;;;;;;;5021014;28;20301;-66
2022/09/06 04:06:27;;;;;;;10.45;8.00;;;;;;;;;;5023124;28;20187;-66
2022/09/06 04:08:53;;;;;;;11.50;7.93;;;;;;;;;;5030311;28;20284;-66
2022/09/06 04:11:19;;;;;;;12.85;8.65;;;;;;;;;;5031477;28;20186;-67
2022/09/06 04:13:44;;;;;;;13.77;8.65;;;;;;;;;;5026017;28;20180;-67
2022/09/06 04:16:09;;;;;;;12.27;8.93;;;;;;;;;;5027384;28;20274;-67
2022/09/06 04:18:35;;;;;;;15.48;9.77;;;;;;;;;;5028443;28;20272;-67
2022/09/06 04:21:01;;;;;;;11.88;8.82;;;;;;;;;;5025655;28;20174;-66
2022/09/06 04:23:27;;;;;;;11.75;9.25;;;;;;;;;;5027056;28;20501;-67
2022/09/06 04:25:55;;;;;;;19.13;9.00;;;;;;;;;;5025864;28;20325;-66
2022/09/06 04:28:21;;;;;;;11.13;8.55;;;;;;;;;;5027818;28;20192;-67
2022/09/06 04:30:58;;;;;;;10.52;9.43;;;;;;;;;;5027987;28;20309;-67
2022/09/06 04:33:25;;;;;;;16.20;10.57;;;;;;;;;;5027222;28;20319;-68
2022/09/06 04:35:55;;;;;;;16.60;10.55;;;;;;;;;;5027575;28;20209;-68
2022/09/06 04:38:21;;;;;;;16.33;10.43;;;;;;;;;;5030266;28;20178;-68
2022/09/06 04:40:47;;;;;;;16.88;11.63;;;;;;;;;;5026823;28;20506;-68
2022/09/06 04:43:12;;;;;;;18.80;12.65;;;;;;;;;;5026130;28;20198;-68
2022/09/06 04:45:37;;;;;;;18.52;13.73;;;;;;;;;;5025692;28;20186;-68
2022/09/06 04:48:03;;;;;;;17.05;14.35;;;;;;;;;;5026638;28;20190;-68
2022/09/06 04:50:28;;;;;;;17.25;14.80;;;;;;;;;;5026067;28;20189;-68
2022/09/06 04:52:53;;;;;;;17.75;14.45;;;;;;;;;;5026521;28;20519;-69
2022/09/06 04:55:19;;;;;;;19.02;15.82;;;;;;;;;;5023533;28;20420;-69
2022/09/06 04:57:44;;;;;;;21.30;15.25;;;;;;;;;;5027651;28;20641;-69
2022/09/06 05:00:10;;;;;;;18.13;16.23;;;;;;;;;;5019041;28;20622;-69
2022/09/06 05:02:35;;;;;;;20.92;16.70;;;;;;;;;;5018783;28;20183;-70
2022/09/06 05:05:01;;;;;;;21.92;17.63;;;;;;;;;;5019020;28;20260;-69
2022/09/06 05:07:26;;;;;;;24.60;17.33;;;;;;;;;;5027927;28;20182;-67
2022/09/06 05:09:51;;;;;;;21.17;17.25;;;;;;;;;;5026367;28;20231;-68
2022/09/06 05:12:17;;;;;;;21.58;17.17;;;;;;;;;;5021241;28;20213;-69
2022/09/06 05:14:42;;;;;;;17.17;15.00;;;;;;;;;;5025687;28;20737;-67
2022/09/06 05:17:07;;;;;;;21.80;17.52;;;;;;;;;;5027698;28;20206;-69
2022/09/06 05:19:33;;;;;;;20.40;18.05;;;;;;;;;;5027417;28;20178;-68
2022/09/06 05:21:58;;;;;;;21.67;17.75;;;;;;;;;;5028072;28;20236;-70
2022/09/06 05:24:23;;;;;;;20.52;17.55;;;;;;;;;;5024779;28;20208;-70
2022/09/06 05:26:49;;;;;;;21.67;18.25;;;;;;;;;;5027316;28;20230;-70
2022/09/06 05:29:14;;;;;;;20.15;17.90;;;;;;;;;;5028655;28;20186;-70
2022/09/06 05:31:39;;;;;;;20.40;17.58;;;;;;;;;;5026549;28;20204;-70
2022/09/06 05:34:05;;;;;;;19.63;17.30;;;;;;;;;;5025245;28;20210;-70
2022/09/06 05:36:30;;;;;;;20.35;18.20;;;;;;;;;;5028630;28;20519;-69
2022/09/06 05:38:56;;;;;;;22.13;18.90;;;;;;;;;;5020556;28;20251;-70
2022/09/06 05:41:23;;;;;;;24.45;20.50;;;;;;;;;;5019424;28;20194;-70
2022/09/06 05:43:48;;;;;;;25.38;20.92;;;;;;;;;;4325914;28;10000740;-70
2022/09/06 05:46:15;;;;;;;24.15;19.63;;;;;;;;;;5017367;28;20205;-69
2022/09/06 05:48:40;;;;;;;20.95;18.73;;;;;;;;;;5018610;28;20194;-69
2022/09/06 05:51:08;;;;;;;22.13;19.80;;;;;;;;;;5015759;28;20619;-69
2022/09/06 05:53:39;;;;;;;22.90;20.17;;;;;;;;;;5016782;28;20440;-69
2022/09/06 05:56:06;;;;;;;22.92;20.25;;;;;;;;;;5015232;28;20252;-70
2022/09/06 05:58:31;;;;;;;23.17;20.60;;;;;;;;;;5022874;28;20265;-70
2022/09/06 06:01:19;;;;;;;22.63;20.42;;;;;;;;;;5014151;28;20286;-70
2022/09/06 06:03:56;;;;;;;25.13;20.83;;;;;;;;;;5022824;28;20656;-69
2022/09/06 06:06:23;;;;;;;23.27;20.95;;;;;;;;;;5013789;28;20276;-69
2022/09/06 06:08:48;;;;;;;22.85;20.52;;;;;;;;;;5023198;28;20297;-68
2022/09/06 06:11:15;;;;;;;22.75;20.27;;;;;;;;;;5019705;28;20261;-70
2022/09/06 06:13:41;;;;;;;24.20;21.67;;;;;;;;;;5028382;28;20815;-70
2022/09/06 06:16:09;;;;;;;23.33;20.88;;;;;;;;;;5032484;28;20510;-69
2022/09/06 06:18:34;;;;;;;24.10;21.60;;;;;;;;;;5029039;28;20205;-69
2022/09/06 06:21:14;;;;;;;25.83;20.67;;;;;;;;;;5025973;28;20213;-68
2022/09/06 06:23:41;;;;;;;23.45;20.95;;;;;;;;;;5027684;28;20598;-68
2022/09/06 06:26:07;;;;;;;23.40;20.15;;;;;;;;;;5029463;28;20226;-68
2022/09/06 06:28:34;;;;;;;23.02;20.48;;;;;;;;;;5021378;28;20245;-69
2022/09/06 06:31:00;;;;;;;21.85;19.67;;;;;;;;;;5024999;28;20178;-68
2022/09/06 06:33:26;;;;;;;23.13;20.73;;;;;;;;;;5025436;28;20190;-69
2022/09/06 06:36:07;;;;;;;23.17;20.90;;;;;;;;;;5026434;28;20189;-68
2022/09/06 06:38:34;;;;;;;23.77;21.35;;;;;;;;;;5027395;28;20182;-69
2022/09/06 06:41:00;;;;;;;26.75;19.85;;;;;;;;;;5028430;28;20248;-70
2022/09/06 06:43:26;;;;;;;19.95;17.80;;;;;;;;;;5024664;28;20202;-69
2022/09/06 06:45:52;;;;;;;18.38;16.48;;;;;;;;;;5026541;28;20293;-69
2022/09/06 06:48:17;;;;;;;18.58;13.93;;;;;;;;;;5024832;28;20264;-69
2022/09/06 06:50:43;;;;;;;15.18;13.77;;;;;;;;;;5023039;28;20197;-69
2022/09/06 06:53:08;;;;;;;15.20;13.63;;;;;;;;;;5022254;28;20209;-69
2022/09/06 06:55:34;;;;;;;16.48;14.10;;;;;;;;;;5021672;28;20259;-69
2022/09/06 06:57:59;;;;;;;16.38;14.68;;;;;;;;;;5023681;28;20239;-69
2022/09/06 07:00:25;;;;;;;15.23;13.38;;;;;;;;;;5022777;28;20194;-69
2022/09/06 07:02:51;;;;;;;14.73;13.30;;;;;;;;;;5023316;28;20707;-68
2022/09/06 07:05:17;;;;;;;16.45;13.75;;;;;;;;;;5021876;28;20693;-69
2022/09/06 07:07:42;;;;;;;14.07;12.38;;;;;;;;;;5022311;28;20186;-69
2022/09/06 07:10:08;;;;;;;14.25;12.82;;;;;;;;;;5022646;28;20197;-69
2022/09/06 07:12:33;;;;;;;14.63;13.10;;;;;;;;;;5017640;28;20204;-69
2022/09/06 07:14:59;;;;;;;18.75;12.90;;;;;;;;;;5014915;28;20564;-69
2022/09/06 07:17:24;;;;;;;16.70;14.90;;;;;;;;;;5014628;28;20198;-69
2022/09/06 07:19:49;;;;;;;17.85;14.65;;;;;;;;;;5019880;28;20272;-69
2022/09/06 07:22:15;;;;;;;17.05;15.20;;;;;;;;;;5019522;28;20186;-68
2022/09/06 07:24:40;;;;;;;17.27;15.63;;;;;;;;;;5026323;28;20216;-69
2022/09/06 07:27:05;;;;;;;16.55;14.75;;;;;;;;;;5026450;28;20182;-68
2022/09/06 07:29:31;;;;;;;15.57;13.77;;;;;;;;;;5024703;28;20216;-68
2022/09/06 07:31:56;;;;;;;16.05;14.35;;;;;;;;;;5025885;28;20266;-68
2022/09/06 07:34:24;;;;;;;15.52;13.90;;;;;;;;;;5025115;28;20239;-68
2022/09/06 07:36:55;;;;;;;14.13;12.75;;;;;;;;;;5024429;28;20193;-69
2022/09/06 07:39:21;;;;;;;13.88;12.52;;;;;;;;;;5025741;28;20186;-69
2022/09/06 07:41:47;;;;;;;13.52;12.13;;;;;;;;;;5022659;28;20189;-69
2022/09/06 07:44:12;;;;;;;19.00;12.65;;;;;;;;;;5023973;28;20363;-68
2022/09/06 07:46:38;;;;;;;14.38;12.70;;;;;;;;;;5018855;28;20274;-68
2022/09/06 07:49:04;;;;;;;16.63;12.35;;;;;;;;;;5025698;28;20216;-66
2022/09/06 07:51:30;;;;;;;13.75;12.27;;;;;;;;;;5025048;28;20185;-68
2022/09/06 07:53:55;;;;;;;15.02;12.63;;;;;;;;;;5023539;28;20167;-67
2022/09/06 07:56:22;;;;;;;16.13;14.10;;;;;;;;;;5026287;28;20205;-66
2022/09/06 07:58:48;;;;;;;18.80;15.13;;;;;;;;;;5026813;28;20182;-66
2022/09/06 08:01:34;;;;;;;18.02;15.32;;;;;;;;;;5024348;28;20178;-67
2022/09/06 08:04:04;;;;;;;19.13;15.65;;;;;;;;;;5025866;28;20201;-67
2022/09/06 08:06:32;;;;;;;16.30;14.57;;;;;;;;;;5024963;28;20288;-66
2022/09/06 08:08:59;;;;;;;17.30;14.23;;;;;;;;;;5023340;28;20228;-67
2022/09/06 08:11:27;;;;;;;15.73;12.30;;;;;;;;;;5015333;28;20197;-66
2022/09/06 08:13:54;;;;;;;14.43;12.52;;;;;;;;;;5023711;28;20174;-66
2022/09/06 08:16:20;;;;;;;13.57;12.18;;;;;;;;;;5022115;28;20265;-67
2022/09/06 08:18:53;;;;;;;16.17;11.90;;;;;;;;;;5024419;28;20178;-67
2022/09/06 08:21:22;;;;;;;15.13;11.55;;;;;;;;;;5019955;28;20187;-68
2022/09/06 08:23:50;;;;;;;15.43;11.73;;;;;;;;;;5025981;28;20286;-67
2022/09/06 08:26:16;;;;;;;14.48;11.18;;;;;;;;;;5025401;28;20236;-66
2022/09/06 08:28:42;;;;;;;12.75;10.85;;;;;;;;;;5020464;28;20589;-66
2022/09/06 08:31:10;;;;;;;10.52;9.15;;;;;;;;;;5015371;28;20189;-66
2022/09/06 08:33:38;;;;;;;13.80;11.85;;;;;;;;;;5024272;28;20566;-67
2022/09/06 08:36:04;;;;;;;12.32;11.23;;;;;;;;;;5023914;28;20261;-67
2022/09/06 08:38:29;;;;;;;11.63;10.43;;;;;;;;;;5019055;28;20255;-67
2022/09/06 08:41:06;;;;;;;13.25;10.30;;;;;;;;;;5020975;28;20179;-67
2022/09/06 08:43:32;;;;;;;11.55;10.38;;;;;;;;;;5019322;28;20205;-67
2022/09/06 08:45:57;;;;;;;13.27;10.10;;;;;;;;;;5014923;28;20664;-66
2022/09/06 08:48:27;;;;;;;10.32;9.32;;;;;;;;;;5024432;28;20201;-66
2022/09/06 08:51:29;;;;;;;11.20;10.10;;;;;;;;;;5023904;28;20593;-66
2022/09/06 08:54:00;;;;;;;11.63;10.43;;;;;;;;;;5002900;28;20608;-66
2022/09/06 08:56:41;;;;;;;11.18;8.75;;;;;;;;;;5027740;28;20664;-66
2022/09/06 08:59:12;;;;;;;13.82;10.00;;;;;;;;;;5028898;28;20186;-67
2022/09/06 09:02:03;;;;;;;10.20;8.80;;;;;;;;;;5030648;28;20547;-67
2022/09/06 09:04:29;;;;;;;10.48;9.23;;;;;;;;;;5026077;28;20209;-67
2022/09/06 09:07:00;;;;;;;12.45;8.68;;;;;;;;;;5026863;28;20197;-67
2022/09/06 09:09:30;;;;;;;9.27;8.35;;;;;;;;;;5024610;28;20565;-67
2022/09/06 09:11:58;;;;;;;11.32;7.97;;;;;;;;;;5025548;28;20568;-67
2022/09/06 09:14:28;;;;;;;11.30;8.63;;;;;;;;;;5026998;28;20202;-67
2022/09/06 09:16:58;;;;;;;9.50;7.88;;;;;;;;;;5011486;28;20211;-67
2022/09/06 09:19:23;;;;;;;9.88;8.70;;;;;;;;;;5029428;28;20174;-67
2022/09/06 09:21:48;;;;;;;13.82;8.23;;;;;;;;;;5019762;28;20175;-67
2022/09/06 09:24:14;;;;;;;11.88;8.60;;;;;;;;;;5030504;28;20289;-67
2022/09/06 09:27:02;;;;;;;9.65;7.40;;;;;;;;;;5030143;28;20606;-68
2022/09/06 09:29:28;;;;;;;10.57;8.05;;;;;;;;;;5017920;28;20205;-67
2022/09/06 09:31:54;;;;;;;10.02;8.20;;;;;;;;;;5030023;28;20194;-67
2022/09/06 09:34:38;;;;;;;10.27;8.00;;;;;;;;;;5030663;28;20723;-67
2022/09/06 09:37:11;;;;;;;11.73;9.15;;;;;;;;;;5026518;28;20182;-67
2022/09/06 09:39:38;;;;;;;11.30;8.63;;;;;;;;;;5031606;28;20573;-67
2022/09/06 09:42:03;;;;;;;7.90;6.65;;;;;;;;;;5020969;28;20213;-66
2022/09/06 09:44:29;;;;;;;8.82;7.93;;;;;;;;;;5024272;28;20210;-67
2022/09/06 09:46:54;;;;;;;9.18;7.45;;;;;;;;;;5029199;28;20190;-67
2022/09/06 09:49:23;;;;;;;7.25;6.28;;;;;;;;;;5028979;28;20186;-67
2022/09/06 09:52:11;;;;;;;11.18;9.02;;;;;;;;;;5030099;28;20317;-68
2022/09/06 09:54:39;;;;;;;8.75;7.45;;;;;;;;;;5018314;28;20202;-65
2022/09/06 09:57:10;;;;;;;10.25;6.60;;;;;;;;;;5029124;28;20811;-67
2022/09/06 09:59:35;;;;;;;6.78;5.43;;;;;;;;;;5029203;28;20495;-67
2022/09/06 10:02:15;;;;;;;6.70;4.90;;;;;;;;;;5024152;28;20179;-67
2022/09/06 10:04:49;;;;;;;7.20;4.38;;;;;;;;;;5026086;28;20209;-67
2022/09/06 10:07:19;;;;;;;5.07;4.22;;;;;;;;;;5017884;28;20218;-66
2022/09/06 10:09:55;;;;;;;5.82;4.70;;;;;;;;;;5022424;28;20186;-66
2022/09/06 10:12:38;;;;;;;6.25;4.88;;;;;;;;;;5015031;28;20216;-66
2022/09/06 10:15:09;;;;;;;8.57;5.75;;;;;;;;;;5023646;28;20808;-66
2022/09/06 10:17:46;;;;;;;6.03;4.78;;;;;;;;;;5028280;28;20546;-67
2022/09/06 10:20:11;;;;;;;7.20;4.63;;;;;;;;;;5026453;28;20437;-66
2022/09/06 10:23:05;;;;;;;8.20;5.78;;;;;;;;;;5027582;28;20626;-66
2022/09/06 10:25:49;;;;;;;6.90;4.65;;;;;;;;;;5026804;28;20319;-67
2022/09/06 10:28:28;;;;;;;7.60;4.38;;;;;;;;;;5027637;28;20236;-66
2022/09/06 10:31:11;;;;;;;10.13;5.03;;;;;;;;;;5023433;28;20195;-65
2022/09/06 10:33:51;;;;;;;7.15;5.35;;;;;;;;;;5024959;28;20178;-66
2022/09/06 10:36:24;;;;;;;6.93;4.50;;;;;;;;;;5028817;28;20178;-66
2022/09/06 10:39:07;;;;;;;6.22;4.15;;;;;;;;;;5016080;28;20182;-66
2022/09/06 10:42:13;;;;;;;5.78;4.18;;;;;;;;;;5034260;28;20622;-66
2022/09/06 10:44:50;;;;;;;4.53;4.00;;;;;;;;;;5029344;28;20237;-67
2022/09/06 10:47:17;;;;;;;6.10;4.05;;;;;;;;;;5026440;28;20186;-66
2022/09/06 10:49:47;;;;;;;3.58;3.20;;;;;;;;;;5029432;28;20607;-67
2022/09/06 10:52:20;;;;;;;6.68;3.50;;;;;;;;;;5022293;28;20249;-68
2022/09/06 10:54:46;;;;;;;3.25;2.92;;;;;;;;;;5019146;28;20289;-67
2022/09/06 10:57:19;;;;;;;4.53;2.75;;;;;;;;;;5027795;28;20304;-67
2022/09/06 10:59:56;;;;;;;3.50;2.80;;;;;;;;;;5025644;28;20281;-67
2022/09/06 11:02:43;;;;;;;3.50;3.20;;;;;;;;;;5020066;28;20277;-67
2022/09/06 11:05:19;;;;;;;3.60;3.03;;;;;;;;;;5020669;28;20572;-67
2022/09/06 11:07:51;;;;;;;4.70;3.00;;;;;;;;;;5021770;28;20178;-67
2022/09/06 11:10:22;;;;;;;5.10;3.03;;;;;;;;;;5026023;28;20189;-66
2022/09/06 11:13:02;;;;;;;13.10;3.42;;;;;;;;;;5024021;28;20185;-66
2022/09/06 11:15:41;;;;;;;8.80;3.15;;;;;;;;;;5025755;28;20218;-66
2022/09/06 11:18:17;;;;;;;7.22;3.30;;;;;;;;;;5027084;28;20186;-67
2022/09/06 11:21:14;;;;;;;4.75;3.20;;;;;;;;;;5023541;28;20554;-67
2022/09/06 11:23:50;;;;;;;7.97;3.55;;;;;;;;;;5015576;28;20209;-66
2022/09/06 11:26:35;;;;;;;5.75;2.97;;;;;;;;;;5016679;28;20232;-66
2022/09/06 11:29:08;;;;;;;3.15;2.70;;;;;;;;;;5022024;28;20531;-66
2022/09/06 11:31:55;;;;;;;5.90;3.30;;;;;;;;;;5027393;28;20193;-67
2022/09/06 11:34:22;;;;;;;4.30;2.90;;;;;;;;;;5028010;28;20667;-66
2022/09/06 11:37:15;;;;;;;4.88;3.40;;;;;;;;;;5027850;28;20277;-69
2022/09/06 11:39:41;;;;;;;5.38;3.22;;;;;;;;;;5011929;28;20558;-67
2022/09/06 11:42:09;;;;;;;4.60;3.20;;;;;;;;;;5027891;28;20540;-68
2022/09/06 11:45:11;;;;;;;4.18;3.08;;;;;;;;;;5021253;28;20194;-68
2022/09/06 11:47:41;;;;;;;4.22;3.60;;;;;;;;;;5024780;28;20193;-68
2022/09/06 11:50:19;;;;;;;6.75;3.53;;;;;;;;;;5022055;28;20186;-67
2022/09/06 11:53:05;;;;;;;6.25;3.58;;;;;;;;;;5022262;28;20265;-68
2022/09/06 11:55:37;;;;;;;6.05;3.38;;;;;;;;;;5024061;28;20608;-67
2022/09/06 11:58:08;;;;;;;3.63;2.88;;;;;;;;;;5023996;28;20566;-66
2022/09/06 12:00:34;;;;;;;6.55;3.50;;;;;;;;;;5027746;28;20231;-69
2022/09/06 12:03:00;;;;;;;4.93;2.60;;;;;;;;;;5027181;28;20182;-68
2022/09/06 12:05:30;;;;;;;3.05;2.67;;;;;;;;;;5021489;28;20175;-68
2022/09/06 12:08:24;;;;;;;4.63;3.38;;;;;;;;;;5022506;28;20190;-67
2022/09/06 12:11:00;;;;;;;4.35;2.80;;;;;;;;;;5007995;28;20187;-67
2022/09/06 12:13:52;;;;;;;2.70;2.50;;;;;;;;;;5017703;28;20236;-67
2022/09/06 12:16:18;;;;;;;3.50;2.80;;;;;;;;;;5017477;28;20535;-67
2022/09/06 12:18:46;;;;;;;8.90;2.90;;;;;;;;;;5019424;28;20190;-66
2022/09/06 12:21:38;;;;;;;3.63;2.50;;;;;;;;;;5020390;28;20201;-66
2022/09/06 12:24:05;;;;;;;3.75;2.70;;;;;;;;;;5022026;28;20264;-67
2022/09/06 12:26:51;;;;;;;5.93;2.65;;;;;;;;;;5018344;28;20233;-67
2022/09/06 12:29:27;;;;;;;5.72;3.05;;;;;;;;;;5018094;28;20186;-67
2022/09/06 12:32:00;;;;;;;4.72;2.47;;;;;;;;;;5018834;28;20201;-67
2022/09/06 12:34:30;;;;;;;3.10;2.47;;;;;;;;;;5015302;28;20207;-68
2022/09/06 12:37:03;;;;;;;4.32;2.40;;;;;;;;;;5022541;28;20195;-68
2022/09/06 12:39:29;;;;;;;5.32;2.30;;;;;;;;;;5020499;28;20221;-67
2022/09/06 12:42:11;;;;;;;2.85;2.40;;;;;;;;;;5013794;28;20175;-67
2022/09/06 12:44:41;;;;;;;5.28;2.13;;;;;;;;;;5027336;28;20217;-66
2022/09/06 12:47:20;;;;;;;3.08;2.40;;;;;;;;;;5028162;28;20563;-67
2022/09/06 12:49:45;;;;;;;6.53;2.42;;;;;;;;;;5030328;28;20631;-68
2022/09/06 12:52:14;;;;;;;4.13;2.40;;;;;;;;;;5029477;28;20280;-67
2022/09/06 12:54:48;;;;;;;5.03;2.42;;;;;;;;;;5030721;28;20178;-67
2022/09/06 12:57:24;;;;;;;6.90;2.40;;;;;;;;;;5029979;28;20186;-67
2022/09/06 12:59:52;;;;;;;3.28;2.22;;;;;;;;;;5027621;28;20206;-66
2022/09/06 13:02:44;;;;;;;3.50;2.17;;;;;;;;;;5023996;28;20653;-67
2022/09/06 13:05:11;;;;;;;5.13;2.28;;;;;;;;;;5022492;28;20241;-65
2022/09/06 13:07:43;;;;;;;4.20;2.28;;;;;;;;;;5031204;28;20235;-64
2022/09/06 13:10:09;;;;;;;4.88;2.22;;;;;;;;;;5028237;28;20611;-65
2022/09/06 13:12:41;;;;;;;4.70;2.17;;;;;;;;;;5017433;28;20193;-65
2022/09/06 13:15:12;;;;;;;2.00;1.60;;;;;;;;;;5030102;28;20178;-64
2022/09/06 13:17:38;;;;;;;2.17;1.67;;;;;;;;;;5028423;28;20178;-64
2022/09/06 13:20:21;;;;;;;2.00;1.58;;;;;;;;;;5021933;28;20208;-64
2022/09/06 13:22:49;;;;;;;4.95;2.00;;;;;;;;;;5022784;28;20572;-65
2022/09/06 13:25:23;;;;;;;2.85;2.03;;;;;;;;;;5028725;28;20245;-64
2022/09/06 13:27:50;;;;;;;9.35;1.98;;;;;;;;;;5027249;28;20828;-66
2022/09/06 13:30:33;;;;;;;3.67;2.15;;;;;;;;;;5029281;28;20669;-67
2022/09/06 13:33:00;;;;;;;6.90;2.35;;;;;;;;;;5029053;28;20206;-65
2022/09/06 13:35:28;;;;;;;2.33;1.60;;;;;;;;;;5027761;28;20201;-64
2022/09/06 13:38:19;;;;;;;6.68;2.35;;;;;;;;;;5025971;28;20630;-65
2022/09/06 13:40:44;;;;;;;4.47;2.08;;;;;;;;;;5029643;28;20217;-65
2022/09/06 13:43:11;;;;;;;6.07;2.30;;;;;;;;;;5025379;28;20222;-66
2022/09/06 13:45:38;;;;;;;8.30;2.10;;;;;;;;;;5026957;28;20657;-64
2022/09/06 13:48:03;;;;;;;5.80;2.22;;;;;;;;;;5023890;28;20198;-65
2022/09/06 13:50:29;;;;;;;6.65;2.40;;;;;;;;;;5028558;28;20190;-66
2022/09/06 13:52:54;;;;;;;8.07;2.30;;;;;;;;;;5028320;28;20186;-66
2022/09/06 13:55:23;;;;;;;6.15;2.30;;;;;;;;;;5027205;28;20186;-68
2022/09/06 13:57:49;;;;;;;9.65;2.30;;;;;;;;;;5028744;28;20904;-68
2022/09/06 14:00:16;;;;;;;4.80;1.90;;;;;;;;;;5022609;28;20264;-66
2022/09/06 14:02:41;;;;;;;4.35;2.05;;;;;;;;;;5026307;28;20273;-65
2022/09/06 14:05:07;;;;;;;4.05;2.10;;;;;;;;;;5028634;28;20602;-66
2022/09/06 14:07:33;;;;;;;3.08;1.95;;;;;;;;;;5020539;28;20190;-65
2022/09/06 14:09:59;;;;;;;3.40;1.80;;;;;;;;;;5025326;28;20326;-66
2022/09/06 14:12:26;;;;;;;4.57;1.90;;;;;;;;;;5028218;28;20189;-66
2022/09/06 14:14:51;;;;;;;2.78;1.67;;;;;;;;;;5027202;28;20314;-66
2022/09/06 14:17:17;;;;;;;4.78;2.03;;;;;;;;;;5026253;28;20214;-66
2022/09/06 14:19:42;;;;;;;4.40;2.05;;;;;;;;;;5024661;28;20247;-66
2022/09/06 14:22:08;;;;;;;2.78;1.88;;;;;;;;;;5026056;28;20194;-66
2022/09/06 14:24:33;;;;;;;3.00;1.90;;;;;;;;;;5026392;28;20202;-66
2022/09/06 14:26:58;;;;;;;4.53;2.00;;;;;;;;;;5023366;28;20398;-66
2022/09/06 14:29:24;;;;;;;5.72;2.10;;;;;;;;;;5026269;28;20720;-66
2022/09/06 14:31:49;;;;;;;3.75;1.88;;;;;;;;;;5027193;28;20213;-65
2022/09/06 14:34:15;;;;;;;2.83;1.77;;;;;;;;;;5025083;28;20257;-65
2022/09/06 14:36:40;;;;;;;4.88;1.77;;;;;;;;;;5027286;28;20316;-67
2022/09/06 14:39:05;;;;;;;6.90;1.90;;;;;;;;;;5023787;28;20189;-65
2022/09/06 14:41:31;;;;;;;1.65;1.50;;;;;;;;;;5026999;28;20641;-65
2022/09/06 14:43:57;;;;;;;2.72;1.65;;;;;;;;;;5025484;28;20202;-67
2022/09/06 14:46:24;;;;;;;3.08;1.80;;;;;;;;;;5024072;28;20190;-65
2022/09/06 14:49:08;;;;;;;5.63;1.80;;;;;;;;;;5026588;28;20193;-66
2022/09/06 14:51:35;;;;;;;2.92;1.65;;;;;;;;;;5022496;28;20336;-66